sensor_id;sensor_type;location;lat;lon;timestamp;pressure;altitude;pressure_sealevel;temperature;humidity
46876;BME280;32866;50.160;14.768;2023-01-26T00:01:42;100034.78;;;-0.55;100.00
46876;BME280;32866;50.160;14.768;2023-01-26T00:04:09;100045.09;;;-0.41;100.00
46876;BME280;32866;50.160;14.768;2023-01-26T00:06:34;100021.56;;;-0.44;100.00
46876;BME280;32866;50.160;14.768;2023-01-26T00:08:59;100008.63;;;-0.54;100.00
46876;BME280;32866;50.160;14.768;2023-01-26T00:11:26;100041.63;;;-0.26;100.00
46876;BME280;32866;50.160;14.768;2023-01-26T00:13:56;100023.81;;;-0.30;100.00
46876;BME280;32866;50.160;14.768;2023-01-26T00:16:22;99991.69;;;-0.55;100.00
46876;BME280;32866;50.160;14.768;2023-01-26T00:18:47;100016.34;;;-0.53;100.00
46876;BME280;32866;50.160;14.768;2023-01-26T00:21:18;100017.56;;;-0.34;100.00
46876;BME280;32866;50.160;14.768;2023-01-26T00:23:45;100025.53;;;-0.22;100.00
46876;BME280;32866;50.160;14.768;2023-01-26T00:26:14;100020.00;;;-0.29;100.00
46876;BME280;32866;50.160;14.768;2023-01-26T00:28:40;99997.66;;;-0.46;100.00
46876;BME280;32866;50.160;14.768;2023-01-26T00:31:15;100024.34;;;-0.25;100.00
46876;BME280;32866;50.160;14.768;2023-01-26T00:33:41;100014.59;;;-0.29;100.00
46876;BME280;32866;50.160;14.768;2023-01-26T00:36:06;99995.66;;;-0.49;100.00
46876;BME280;32866;50.160;14.768;2023-01-26T00:38:32;99999.31;;;-0.41;100.00
46876;BME280;32866;50.160;14.768;2023-01-26T00:40:58;99993.44;;;-0.47;100.00
46876;BME280;32866;50.160;14.768;2023-01-26T00:43:23;100005.22;;;-0.35;100.00
46876;BME280;32866;50.160;14.768;2023-01-26T00:45:49;100001.03;;;-0.49;100.00
46876;BME280;32866;50.160;14.768;2023-01-26T00:48:14;99992.81;;;-0.56;100.00
46876;BME280;32866;50.160;14.768;2023-01-26T00:50:40;100010.53;;;-0.39;100.00
46876;BME280;32866;50.160;14.768;2023-01-26T00:53:05;99993.50;;;-0.43;100.00
46876;BME280;32866;50.160;14.768;2023-01-26T00:55:31;99990.88;;;-0.40;100.00
46876;BME280;32866;50.160;14.768;2023-01-26T00:57:57;99995.78;;;-0.45;100.00
46876;BME280;32866;50.160;14.768;2023-01-26T01:00:23;99994.44;;;-0.67;100.00
46876;BME280;32866;50.160;14.768;2023-01-26T01:02:48;99985.94;;;-0.69;100.00
46876;BME280;32866;50.160;14.768;2023-01-26T01:05:14;99971.53;;;-0.77;100.00
46876;BME280;32866;50.160;14.768;2023-01-26T01:07:39;100003.84;;;-0.61;100.00
46876;BME280;32866;50.160;14.768;2023-01-26T01:10:05;100005.56;;;-0.37;100.00
46876;BME280;32866;50.160;14.768;2023-01-26T01:12:30;100016.34;;;-0.53;100.00
46876;BME280;32866;50.160;14.768;2023-01-26T01:14:55;99974.41;;;-0.70;100.00
46876;BME280;32866;50.160;14.768;2023-01-26T01:17:21;99992.53;;;-0.51;100.00
46876;BME280;32866;50.160;14.768;2023-01-26T01:19:46;99997.69;;;-0.62;100.00
46876;BME280;32866;50.160;14.768;2023-01-26T01:22:11;100005.06;;;-0.59;100.00
46876;BME280;32866;50.160;14.768;2023-01-26T01:24:37;99972.50;;;-0.85;100.00
46876;BME280;32866;50.160;14.768;2023-01-26T01:27:03;99996.09;;;-0.63;100.00
46876;BME280;32866;50.160;14.768;2023-01-26T01:29:28;100006.97;;;-0.59;100.00
46876;BME280;32866;50.160;14.768;2023-01-26T01:31:53;100003.84;;;-0.61;100.00
46876;BME280;32866;50.160;14.768;2023-01-26T01:34:19;99990.97;;;-0.68;100.00
46876;BME280;32866;50.160;14.768;2023-01-26T01:36:44;99992.09;;;-0.69;100.00
46876;BME280;32866;50.160;14.768;2023-01-26T01:39:09;99977.41;;;-0.87;100.00
46876;BME280;32866;50.160;14.768;2023-01-26T01:41:35;99992.63;;;-0.63;100.00
46876;BME280;32866;50.160;14.768;2023-01-26T01:44:14;99988.44;;;-0.61;100.00
46876;BME280;32866;50.160;14.768;2023-01-26T01:46:44;99987.69;;;-0.61;100.00
46876;BME280;32866;50.160;14.768;2023-01-26T01:52:16;99987.59;;;-0.49;100.00
46876;BME280;32866;50.160;14.768;2023-01-26T01:54:46;99973.88;;;-0.60;100.00
46876;BME280;32866;50.160;14.768;2023-01-26T01:57:18;99967.72;;;-0.60;100.00
46876;BME280;32866;50.160;14.768;2023-01-26T01:59:55;99973.97;;;-0.56;100.00
46876;BME280;32866;50.160;14.768;2023-01-26T02:02:23;99972.03;;;-0.56;100.00
46876;BME280;32866;50.160;14.768;2023-01-26T02:04:49;99975.19;;;-0.53;100.00
46876;BME280;32866;50.160;14.768;2023-01-26T02:07:14;99962.06;;;-0.71;100.00
46876;BME280;32866;50.160;14.768;2023-01-26T02:09:40;99975.34;;;-0.62;100.00
46876;BME280;32866;50.160;14.768;2023-01-26T02:12:28;99960.50;;;-0.72;100.00
46876;BME280;32866;50.160;14.768;2023-01-26T02:14:55;99953.63;;;-0.69;100.00
46876;BME280;32866;50.160;14.768;2023-01-26T02:17:21;99966.50;;;-0.63;100.00
46876;BME280;32866;50.160;14.768;2023-01-26T02:19:52;99964.75;;;-0.55;100.00
46876;BME280;32866;50.160;14.768;2023-01-26T02:22:55;99962.34;;;-0.60;100.00
46876;BME280;32866;50.160;14.768;2023-01-26T02:25:39;99946.59;;;-0.74;100.00
46876;BME280;32866;50.160;14.768;2023-01-26T02:28:06;99923.34;;;-0.66;100.00
46876;BME280;32866;50.160;14.768;2023-01-26T02:30:32;99951.69;;;-0.37;100.00
46876;BME280;32866;50.160;14.768;2023-01-26T02:32:57;99952.91;;;-0.34;100.00
46876;BME280;32866;50.160;14.768;2023-01-26T02:35:23;99939.72;;;-0.40;100.00
46876;BME280;32866;50.160;14.768;2023-01-26T02:37:48;99953.34;;;-0.32;100.00
46876;BME280;32866;50.160;14.768;2023-01-26T02:42:54;99939.59;;;-0.27;100.00
46876;BME280;32866;50.160;14.768;2023-01-26T02:45:20;99936.63;;;-0.22;100.00
46876;BME280;32866;50.160;14.768;2023-01-26T02:47:46;99932.41;;;-0.39;100.00
46876;BME280;32866;50.160;14.768;2023-01-26T02:50:12;99936.53;;;-0.45;100.00
46876;BME280;32866;50.160;14.768;2023-01-26T02:52:37;99928.69;;;-0.50;100.00
46876;BME280;32866;50.160;14.768;2023-01-26T02:55:03;99916.03;;;-0.66;100.00
46876;BME280;32866;50.160;14.768;2023-01-26T02:57:50;99927.38;;;-0.41;100.00
46876;BME280;32866;50.160;14.768;2023-01-26T03:00:33;99899.81;;;-0.69;100.00
46876;BME280;32866;50.160;14.768;2023-01-26T03:03:08;99908.03;;;-0.62;100.00
46876;BME280;32866;50.160;14.768;2023-01-26T03:05:36;99880.78;;;-0.77;100.00
46876;BME280;32866;50.160;14.768;2023-01-26T03:08:01;99895.28;;;-0.65;100.00
46876;BME280;32866;50.160;14.768;2023-01-26T03:10:30;99906.72;;;-0.52;100.00
46876;BME280;32866;50.160;14.768;2023-01-26T03:12:55;99874.53;;;-0.65;100.00
46876;BME280;32866;50.160;14.768;2023-01-26T03:15:21;99887.59;;;-0.47;100.00
46876;BME280;32866;50.160;14.768;2023-01-26T03:18:07;99893.19;;;-0.56;100.00
46876;BME280;32866;50.160;14.768;2023-01-26T03:20:52;99903.94;;;-0.56;100.00
46876;BME280;32866;50.160;14.768;2023-01-26T03:23:36;99902.97;;;-0.48;100.00
46876;BME280;32866;50.160;14.768;2023-01-26T03:26:20;99901.75;;;-0.34;100.00
46876;BME280;32866;50.160;14.768;2023-01-26T03:29:04;99895.59;;;-0.35;100.00
46876;BME280;32866;50.160;14.768;2023-01-26T03:31:29;99899.06;;;-0.34;100.00
46876;BME280;32866;50.160;14.768;2023-01-26T03:33:54;99867.66;;;-0.62;100.00
46876;BME280;32866;50.160;14.768;2023-01-26T03:36:20;99862.47;;;-0.71;100.00
46876;BME280;32866;50.160;14.768;2023-01-26T03:38:45;99883.50;;;-0.41;100.00
46876;BME280;32866;50.160;14.768;2023-01-26T03:41:11;99897.81;;;-0.37;100.00
46876;BME280;32866;50.160;14.768;2023-01-26T03:43:55;99857.59;;;-0.65;100.00
46876;BME280;32866;50.160;14.768;2023-01-26T03:46:38;99864.53;;;-0.64;100.00
46876;BME280;32866;50.160;14.768;2023-01-26T03:49:22;99879.16;;;-0.46;100.00
46876;BME280;32866;50.160;14.768;2023-01-26T03:52:06;99878.19;;;-0.38;100.00
46876;BME280;32866;50.160;14.768;2023-01-26T03:54:49;99881.16;;;-0.43;100.00
46876;BME280;32866;50.160;14.768;2023-01-26T03:57:34;99881.50;;;-0.28;100.00
46876;BME280;32866;50.160;14.768;2023-01-26T03:59:59;99877.09;;;-0.36;100.00
46876;BME280;32866;50.160;14.768;2023-01-26T04:02:24;99869.84;;;-0.32;100.00
46876;BME280;32866;50.160;14.768;2023-01-26T04:05:08;99862.16;;;-0.50;100.00
46876;BME280;32866;50.160;14.768;2023-01-26T04:07:52;99872.53;;;-0.52;100.00
46876;BME280;32866;50.160;14.768;2023-01-26T04:10:35;99866.25;;;-0.56;100.00
46876;BME280;32866;50.160;14.768;2023-01-26T04:13:01;99856.53;;;-0.61;100.00
46876;BME280;32866;50.160;14.768;2023-01-26T04:15:46;99858.66;;;-0.70;100.00
46876;BME280;32866;50.160;14.768;2023-01-26T04:18:30;99815.81;;;-1.10;100.00
46876;BME280;32866;50.160;14.768;2023-01-26T04:21:14;99867.66;;;-0.62;100.00
46876;BME280;32866;50.160;14.768;2023-01-26T04:23:55;99854.31;;;-0.75;100.00
46876;BME280;32866;50.160;14.768;2023-01-26T04:26:23;99868.13;;;-0.76;100.00
46876;BME280;32866;50.160;14.768;2023-01-26T04:28:48;99855.53;;;-0.88;100.00
46876;BME280;32866;50.160;14.768;2023-01-26T04:31:14;99863.00;;;-0.65;100.00
46876;BME280;32866;50.160;14.768;2023-01-26T04:33:41;99865.94;;;-0.70;100.00
46876;BME280;32866;50.160;14.768;2023-01-26T04:36:08;99863.41;;;-0.79;100.00
46876;BME280;32866;50.160;14.768;2023-01-26T04:38:34;99836.22;;;-0.58;100.00
46876;BME280;32866;50.160;14.768;2023-01-26T04:40:59;99858.59;;;-0.54;100.00
46876;BME280;32866;50.160;14.768;2023-01-26T04:43:25;99838.63;;;-0.88;100.00
46876;BME280;32866;50.160;14.768;2023-01-26T04:48:23;99850.97;;;-0.52;100.00
46876;BME280;32866;50.160;14.768;2023-01-26T04:51:00;99848.81;;;-0.27;100.00
46876;BME280;32866;50.160;14.768;2023-01-26T04:53:26;99842.78;;;-0.40;100.00
46876;BME280;32866;50.160;14.768;2023-01-26T04:55:52;99848.44;;;-0.45;100.00
46876;BME280;32866;50.160;14.768;2023-01-26T04:58:17;99848.19;;;-0.56;100.00
46876;BME280;32866;50.160;14.768;2023-01-26T05:00:43;99829.25;;;-0.59;100.00
46876;BME280;32866;50.160;14.768;2023-01-26T05:03:09;99811.25;;;-0.75;100.00
46876;BME280;32866;50.160;14.768;2023-01-26T05:05:35;99802.03;;;-0.73;100.00
46876;BME280;32866;50.160;14.768;2023-01-26T05:08:02;99795.50;;;-0.92;100.00
46876;BME280;32866;50.160;14.768;2023-01-26T05:10:27;99841.94;;;-0.60;100.00
46876;BME280;32866;50.160;14.768;2023-01-26T05:12:53;99809.25;;;-0.78;100.00
46876;BME280;32866;50.160;14.768;2023-01-26T05:15:18;99813.50;;;-0.77;100.00
46876;BME280;32866;50.160;14.768;2023-01-26T05:17:44;99837.06;;;-0.54;100.00
46876;BME280;32866;50.160;14.768;2023-01-26T05:20:10;99821.50;;;-0.80;100.00
46876;BME280;32866;50.160;14.768;2023-01-26T05:22:35;99827.25;;;-0.82;100.00
46876;BME280;32866;50.160;14.768;2023-01-26T05:25:00;99844.72;;;-0.56;100.00
46876;BME280;32866;50.160;14.768;2023-01-26T05:27:26;99846.38;;;-0.51;100.00
46876;BME280;32866;50.160;14.768;2023-01-26T05:29:51;99852.66;;;-0.44;100.00
46876;BME280;32866;50.160;14.768;2023-01-26T05:32:17;99850.16;;;-0.36;100.00
46876;BME280;32866;50.160;14.768;2023-01-26T05:34:43;99847.28;;;-0.44;100.00
46876;BME280;32866;50.160;14.768;2023-01-26T05:37:09;99841.31;;;-0.53;100.00
46876;BME280;32866;50.160;14.768;2023-01-26T05:39:34;99833.66;;;-0.51;100.00
46876;BME280;32866;50.160;14.768;2023-01-26T05:41:59;99832.69;;;-0.43;100.00
46876;BME280;32866;50.160;14.768;2023-01-26T05:44:25;99846.44;;;-0.48;100.00
46876;BME280;32866;50.160;14.768;2023-01-26T05:46:51;99852.09;;;-0.53;100.00
46876;BME280;32866;50.160;14.768;2023-01-26T05:49:16;99843.75;;;-0.48;100.00
46876;BME280;32866;50.160;14.768;2023-01-26T05:51:42;99839.19;;;-0.44;100.00
46876;BME280;32866;50.160;14.768;2023-01-26T05:54:08;99835.88;;;-0.57;100.00
46876;BME280;32866;50.160;14.768;2023-01-26T05:56:33;99826.41;;;-0.66;100.00
46876;BME280;32866;50.160;14.768;2023-01-26T05:58:59;99829.69;;;-0.57;100.00
46876;BME280;32866;50.160;14.768;2023-01-26T06:01:24;99826.22;;;-0.58;100.00
46876;BME280;32866;50.160;14.768;2023-01-26T06:03:49;99815.31;;;-0.65;100.00
46876;BME280;32866;50.160;14.768;2023-01-26T06:06:15;99812.53;;;-0.68;100.00
46876;BME280;32866;50.160;14.768;2023-01-26T06:08:40;99824.69;;;-0.59;100.00
46876;BME280;32866;50.160;14.768;2023-01-26T06:11:05;99793.44;;;-0.79;100.00
46876;BME280;32866;50.160;14.768;2023-01-26T06:13:31;99787.72;;;-0.78;100.00
46876;BME280;32866;50.160;14.768;2023-01-26T06:15:59;99826.22;;;-0.58;100.00
46876;BME280;32866;50.160;14.768;2023-01-26T06:18:28;99818.63;;;-0.71;100.00
46876;BME280;32866;50.160;14.768;2023-01-26T06:20:57;99826.28;;;-0.73;100.00
46876;BME280;32866;50.160;14.768;2023-01-26T06:23:23;99804.34;;;-1.07;100.00
46876;BME280;32866;50.160;14.768;2023-01-26T06:25:48;99829.59;;;-0.80;100.00
46876;BME280;32866;50.160;14.768;2023-01-26T06:28:14;99783.31;;;-0.86;100.00
46876;BME280;32866;50.160;14.768;2023-01-26T06:30:39;99821.47;;;-0.64;100.00
46876;BME280;32866;50.160;14.768;2023-01-26T06:33:05;99804.91;;;-0.82;100.00
46876;BME280;32866;50.160;14.768;2023-01-26T06:35:32;99822.09;;;-0.71;100.00
46876;BME280;32866;50.160;14.768;2023-01-26T06:37:57;99802.50;;;-0.87;100.00
46876;BME280;32866;50.160;14.768;2023-01-26T06:40:23;99769.06;;;-0.86;100.00
46876;BME280;32866;50.160;14.768;2023-01-26T06:42:49;99813.09;;;-0.59;100.00
46876;BME280;32866;50.160;14.768;2023-01-26T06:45:15;99772.13;;;-0.88;100.00
46876;BME280;32866;50.160;14.768;2023-01-26T06:47:46;99819.66;;;-0.60;100.00
46876;BME280;32866;50.160;14.768;2023-01-26T06:50:20;99789.09;;;-0.68;100.00
46876;BME280;32866;50.160;14.768;2023-01-26T06:52:49;99821.09;;;-0.47;100.00
46876;BME280;32866;50.160;14.768;2023-01-26T06:55:31;99823.44;;;-0.61;100.00
46876;BME280;32866;50.160;14.768;2023-01-26T06:57:58;99822.16;;;-0.67;100.00
46876;BME280;32866;50.160;14.768;2023-01-26T07:00:24;99831.53;;;-0.61;100.00
46876;BME280;32866;50.160;14.768;2023-01-26T07:02:49;99817.78;;;-0.56;100.00
46876;BME280;32866;50.160;14.768;2023-01-26T07:05:15;99783.91;;;-0.77;100.00
46876;BME280;32866;50.160;14.768;2023-01-26T07:07:40;99820.81;;;-0.42;100.00
46876;BME280;32866;50.160;14.768;2023-01-26T07:10:06;99816.59;;;-0.39;100.00
46876;BME280;32866;50.160;14.768;2023-01-26T07:12:42;99817.81;;;-0.36;100.00
46876;BME280;32866;50.160;14.768;2023-01-26T07:15:09;99820.22;;;-0.51;100.00
46876;BME280;32866;50.160;14.768;2023-01-26T07:17:36;99787.91;;;-0.86;100.00
46876;BME280;32866;50.160;14.768;2023-01-26T07:20:01;99814.97;;;-0.44;100.00
46876;BME280;32866;50.160;14.768;2023-01-26T07:22:26;99832.28;;;-0.45;100.00
46876;BME280;32866;50.160;14.768;2023-01-26T07:24:52;99826.47;;;-0.47;100.00
46876;BME280;32866;50.160;14.768;2023-01-26T07:27:17;99799.03;;;-0.88;100.00
46876;BME280;32866;50.160;14.768;2023-01-26T07:29:42;99810.63;;;-0.68;100.00
46876;BME280;32866;50.160;14.768;2023-01-26T07:32:08;99806.56;;;-0.78;100.00
46876;BME280;32866;50.160;14.768;2023-01-26T07:34:33;99799.09;;;-0.68;100.00
46876;BME280;32866;50.160;14.768;2023-01-26T07:36:59;99781.91;;;-0.80;100.00
46876;BME280;32866;50.160;14.768;2023-01-26T07:39:24;99829.31;;;-0.40;100.00
46876;BME280;32866;50.160;14.768;2023-01-26T07:41:49;99825.50;;;-0.39;100.00
46876;BME280;32866;50.160;14.768;2023-01-26T07:44:15;99810.75;;;-0.61;100.00
46876;BME280;32866;50.160;14.768;2023-01-26T07:46:40;99816.19;;;-0.41;100.00
46876;BME280;32866;50.160;14.768;2023-01-26T07:49:06;99821.91;;;-0.43;100.00
46876;BME280;32866;50.160;14.768;2023-01-26T07:51:32;99824.97;;;-0.44;100.00
46876;BME280;32866;50.160;14.768;2023-01-26T07:53:57;99822.41;;;-0.57;100.00
46876;BME280;32866;50.160;14.768;2023-01-26T07:56:23;99792.13;;;-0.69;100.00
46876;BME280;32866;50.160;14.768;2023-01-26T07:58:50;99822.41;;;-0.57;100.00
46876;BME280;32866;50.160;14.768;2023-01-26T08:01:15;99816.50;;;-0.62;100.00
46876;BME280;32866;50.160;14.768;2023-01-26T08:03:41;99825.59;;;-0.51;100.00
46876;BME280;32866;50.160;14.768;2023-01-26T08:06:07;99817.47;;;-0.35;100.00
46876;BME280;32866;50.160;14.768;2023-01-26T08:08:33;99821.56;;;-0.41;100.00
46876;BME280;32866;50.160;14.768;2023-01-26T08:11:00;99815.69;;;-0.47;100.00
46876;BME280;32866;50.160;14.768;2023-01-26T08:13:26;99804.06;;;-0.51;100.00
46876;BME280;32866;50.160;14.768;2023-01-26T08:15:52;99793.97;;;-0.54;100.00
46876;BME280;32866;50.160;14.768;2023-01-26T08:18:17;99817.81;;;-0.36;100.00
46876;BME280;32866;50.160;14.768;2023-01-26T08:20:53;99818.09;;;-0.42;100.00
46876;BME280;32866;50.160;14.768;2023-01-26T08:23:18;99793.91;;;-0.58;100.00
46876;BME280;32866;50.160;14.768;2023-01-26T08:25:44;99816.84;;;-0.28;100.00
46876;BME280;32866;50.160;14.768;2023-01-26T08:28:10;99795.13;;;-0.55;100.00
46876;BME280;32866;50.160;14.768;2023-01-26T08:30:35;99787.06;;;-0.35;100.00
46876;BME280;32866;50.160;14.768;2023-01-26T08:33:02;99807.06;;;-0.36;100.00
46876;BME280;32866;50.160;14.768;2023-01-26T08:35:28;99811.00;;;-0.50;100.00
46876;BME280;32866;50.160;14.768;2023-01-26T08:37:54;99805.72;;;-0.62;100.00
46876;BME280;32866;50.160;14.768;2023-01-26T08:40:20;99788.00;;;-0.83;100.00
46876;BME280;32866;50.160;14.768;2023-01-26T08:42:45;99817.50;;;-0.51;100.00
46876;BME280;32866;50.160;14.768;2023-01-26T08:45:10;99798.53;;;-0.58;100.00
46876;BME280;32866;50.160;14.768;2023-01-26T08:47:36;99818.94;;;-0.38;100.00
46876;BME280;32866;50.160;14.768;2023-01-26T08:50:01;99818.25;;;-0.34;100.00
46876;BME280;32866;50.160;14.768;2023-01-26T08:52:27;99805.44;;;-0.57;100.00
46876;BME280;32866;50.160;14.768;2023-01-26T08:54:52;99806.53;;;-0.42;100.00
46876;BME280;32866;50.160;14.768;2023-01-26T08:57:17;99772.72;;;-0.79;100.00
46876;BME280;32866;50.160;14.768;2023-01-26T08:59:43;99788.94;;;-0.75;100.00
46876;BME280;32866;50.160;14.768;2023-01-26T09:02:08;99798.94;;;-0.56;100.00
46876;BME280;32866;50.160;14.768;2023-01-26T09:04:34;99820.34;;;-0.44;100.00
46876;BME280;32866;50.160;14.768;2023-01-26T09:07:00;99815.84;;;-0.40;100.00
46876;BME280;32866;50.160;14.768;2023-01-26T09:09:25;99810.25;;;-0.31;100.00
46876;BME280;32866;50.160;14.768;2023-01-26T09:11:54;99819.09;;;-0.30;100.00
46876;BME280;32866;50.160;14.768;2023-01-26T09:14:19;99809.31;;;-0.39;100.00
46876;BME280;32866;50.160;14.768;2023-01-26T09:16:45;99782.03;;;-0.57;100.00
46876;BME280;32866;50.160;14.768;2023-01-26T09:19:10;99816.13;;;-0.25;100.00
46876;BME280;32866;50.160;14.768;2023-01-26T09:21:36;99797.41;;;-0.38;100.00
46876;BME280;32866;50.160;14.768;2023-01-26T09:24:01;99790.97;;;-0.33;100.00
46876;BME280;32866;50.160;14.768;2023-01-26T09:26:28;99812.00;;;-0.19;100.00
46876;BME280;32866;50.160;14.768;2023-01-26T09:28:54;99809.25;;;-0.23;100.00
46876;BME280;32866;50.160;14.768;2023-01-26T09:31:19;99774.31;;;-0.39;100.00
46876;BME280;32866;50.160;14.768;2023-01-26T09:33:45;99816.91;;;-0.05;100.00
46876;BME280;32866;50.160;14.768;2023-01-26T09:36:12;99809.66;;;0.18;100.00
46876;BME280;32866;50.160;14.768;2023-01-26T09:38:37;99810.03;;;-0.03;100.00
46876;BME280;32866;50.160;14.768;2023-01-26T09:41:21;99813.72;;;0.09;100.00
46876;BME280;32866;50.160;14.768;2023-01-26T09:43:55;99801.69;;;0.26;100.00
46876;BME280;32866;50.160;14.768;2023-01-26T09:49:14;99802.47;;;0.07;100.00
46876;BME280;32866;50.160;14.768;2023-01-26T09:51:47;99799.47;;;0.31;100.00
46876;BME280;32866;50.160;14.768;2023-01-26T09:54:31;99782.63;;;0.38;100.00
46876;BME280;32866;50.160;14.768;2023-01-26T09:57:11;99786.72;;;0.28;100.00
46876;BME280;32866;50.160;14.768;2023-01-26T09:59:49;99774.47;;;0.11;100.00
46876;BME280;32866;50.160;14.768;2023-01-26T10:02:49;99786.88;;;0.16;100.00
46876;BME280;32866;50.160;14.768;2023-01-26T10:08:14;99788.38;;;0.36;100.00
46876;BME280;32866;50.160;14.768;2023-01-26T10:10:45;99790.78;;;0.42;100.00
46876;BME280;32866;50.160;14.768;2023-01-26T10:13:14;99782.63;;;0.38;100.00
46876;BME280;32866;50.160;14.768;2023-01-26T10:15:42;99771.13;;;0.18;100.00
46876;BME280;32866;50.160;14.768;2023-01-26T10:18:16;99788.16;;;0.22;100.00
46876;BME280;32866;50.160;14.768;2023-01-26T10:20:52;99777.66;;;0.17;100.00
46876;BME280;32866;50.160;14.768;2023-01-26T10:23:39;99785.53;;;0.26;100.00
46876;BME280;32866;50.160;14.768;2023-01-26T10:26:16;99789.00;;;0.07;100.00
46876;BME280;32866;50.160;14.768;2023-01-26T10:28:43;99772.13;;;0.10;100.00
46876;BME280;32866;50.160;14.768;2023-01-26T10:31:20;99768.31;;;0.11;100.00
46876;BME280;32866;50.160;14.768;2023-01-26T10:34:21;99783.34;;;0.12;100.00
46876;BME280;32866;50.160;14.768;2023-01-26T10:36:46;99783.56;;;0.03;100.00
46876;BME280;32866;50.160;14.768;2023-01-26T10:39:13;99776.63;;;-0.17;100.00
46876;BME280;32866;50.160;14.768;2023-01-26T10:41:39;99787.28;;;0.18;100.00
46876;BME280;32866;50.160;14.768;2023-01-26T10:46:38;99772.25;;;-0.06;100.00
46876;BME280;32866;50.160;14.768;2023-01-26T10:51:34;99772.44;;;0.05;100.00
46876;BME280;32866;50.160;14.768;2023-01-26T10:56:43;99743.44;;;-0.02;100.00
46876;BME280;32866;50.160;14.768;2023-01-26T10:59:09;99748.94;;;-0.18;100.00
46876;BME280;32866;50.160;14.768;2023-01-26T11:01:50;99759.22;;;0.19;100.00
46876;BME280;32866;50.160;14.768;2023-01-26T11:04:16;99754.34;;;0.05;100.00
46876;BME280;32866;50.160;14.768;2023-01-26T11:06:41;99753.63;;;0.08;100.00
46876;BME280;32866;50.160;14.768;2023-01-26T11:09:09;99764.59;;;0.19;100.00
46876;BME280;32866;50.160;14.768;2023-01-26T11:11:35;99771.19;;;0.22;100.00
46876;BME280;32866;50.160;14.768;2023-01-26T11:14:17;99762.44;;;0.28;100.00
46876;BME280;32866;50.160;14.768;2023-01-26T11:16:49;99760.72;;;0.40;100.00
46876;BME280;32866;50.160;14.768;2023-01-26T11:21:58;99760.41;;;0.45;100.00
46876;BME280;32866;50.160;14.768;2023-01-26T11:24:48;99755.88;;;0.49;100.00
46876;BME280;32866;50.160;14.768;2023-01-26T11:35:56;99750.56;;;0.10;100.00
46876;BME280;32866;50.160;14.768;2023-01-26T11:38:39;99706.50;;;-0.02;100.00
46876;BME280;32866;50.160;14.768;2023-01-26T11:47:06;99719.78;;;0.11;100.00
46876;BME280;32866;50.160;14.768;2023-01-26T11:52:40;99732.72;;;0.02;100.00
46876;BME280;32866;50.160;14.768;2023-01-26T11:55:23;99734.34;;;0.06;100.00
46876;BME280;32866;50.160;14.768;2023-01-26T11:57:58;99735.97;;;0.11;100.00
46876;BME280;32866;50.160;14.768;2023-01-26T12:00:41;99724.72;;;0.05;100.00
46876;BME280;32866;50.160;14.768;2023-01-26T12:03:42;99729.63;;;0.23;100.00
46876;BME280;32866;50.160;14.768;2023-01-26T12:06:58;99693.91;;;0.06;100.00
46876;BME280;32866;50.160;14.768;2023-01-26T12:14:29;99707.50;;;-0.10;100.00
46876;BME280;32866;50.160;14.768;2023-01-26T12:22:26;99695.78;;;0.02;100.00
46876;BME280;32866;50.160;14.768;2023-01-26T12:27:43;99698.53;;;0.29;100.00
46876;BME280;32866;50.160;14.768;2023-01-26T12:30:30;99688.72;;;0.17;100.00
46876;BME280;32866;50.160;14.768;2023-01-26T12:32:59;99683.38;;;0.21;100.00
46876;BME280;32866;50.160;14.768;2023-01-26T12:35:49;99676.13;;;0.02;100.00
46876;BME280;32866;50.160;14.768;2023-01-26T12:38:27;99690.56;;;0.13;100.00
46876;BME280;32866;50.160;14.768;2023-01-26T12:45:55;99687.59;;;0.45;100.00
46876;BME280;32866;50.160;14.768;2023-01-26T12:51:19;99679.63;;;0.25;100.00
46876;BME280;32866;50.160;14.768;2023-01-26T12:53:59;99682.41;;;0.32;100.00
46876;BME280;32866;50.160;14.768;2023-01-26T12:56:50;99680.75;;;0.24;100.00
46876;BME280;32866;50.160;14.768;2023-01-26T12:59:31;99652.63;;;-0.02;100.00
46876;BME280;32866;50.160;14.768;2023-01-26T13:01:58;99653.13;;;0.31;100.00
46876;BME280;32866;50.160;14.768;2023-01-26T13:04:25;99677.69;;;0.26;100.00
46876;BME280;32866;50.160;14.768;2023-01-26T13:07:01;99676.47;;;0.23;100.00
46876;BME280;32866;50.160;14.768;2023-01-26T13:09:28;99669.06;;;0.16;100.00
46876;BME280;32866;50.160;14.768;2023-01-26T13:11:55;99673.50;;;0.05;100.00
46876;BME280;32866;50.160;14.768;2023-01-26T13:24:58;99663.00;;;0.23;100.00
46876;BME280;32866;50.160;14.768;2023-01-26T13:35:19;99658.75;;;0.22;100.00
46876;BME280;32866;50.160;14.768;2023-01-26T13:38:07;99655.88;;;0.34;100.00
46876;BME280;32866;50.160;14.768;2023-01-26T13:40:39;99646.47;;;0.25;100.00
46876;BME280;32866;50.160;14.768;2023-01-26T13:46:08;99659.06;;;0.17;100.00
46876;BME280;32866;50.160;14.768;2023-01-26T13:48:35;99661.66;;;0.36;100.00
46876;BME280;32866;50.160;14.768;2023-01-26T13:51:05;99653.25;;;0.42;100.00
46876;BME280;32866;50.160;14.768;2023-01-26T13:53:37;99646.50;;;0.28;100.00
46876;BME280;32866;50.160;14.768;2023-01-26T13:56:20;99614.94;;;0.02;100.00
46876;BME280;32866;50.160;14.768;2023-01-26T13:58:46;99646.06;;;0.23;100.00
46876;BME280;32866;50.160;14.768;2023-01-26T14:01:12;99652.22;;;0.23;100.00
46876;BME280;32866;50.160;14.768;2023-01-26T14:03:38;99629.84;;;-0.04;100.00
46876;BME280;32866;50.160;14.768;2023-01-26T14:06:07;99650.00;;;0.29;100.00
46876;BME280;32866;50.160;14.768;2023-01-26T14:08:35;99649.56;;;0.27;100.00
46876;BME280;32866;50.160;14.768;2023-01-26T14:11:02;99648.38;;;0.24;100.00
46876;BME280;32866;50.160;14.768;2023-01-26T14:13:35;99642.28;;;0.27;100.00
46876;BME280;32866;50.160;14.768;2023-01-26T14:16:04;99644.19;;;0.53;100.00
46876;BME280;32866;50.160;14.768;2023-01-26T14:18:29;99637.66;;;0.28;100.00